Time;durP1;ratioP1;P1;durP2;ratioP2;P2;SDS_P1;SDS_P2;PMS_P1;PMS_P2;Temp;Humidity;BMP_temperature;BMP_pressure;BME280_temperature;BME280_humidity;BME280_pressure;Samples;Min_cycle;Max_cycle;Signal;HPM_P1;HPM_P2
2023/12/21 00:01:57;;;;;;;0.00;0.00;;;;;;;;;;6216838;23;20012;-86
2023/12/21 00:04:23;;;;;;;0.00;0.00;;;;;;;;;;6192175;23;20443;-87
2023/12/21 00:06:48;;;;;;;0.00;0.00;;;;;;;;;;6242443;23;20058;-86
2023/12/21 00:09:14;;;;;;;0.00;0.00;;;;;;;;;;6192916;23;20018;-87
2023/12/21 00:11:40;;;;;;;0.00;0.00;;;;;;;;;;6242030;23;20004;-86
2023/12/21 00:14:10;;;;;;;0.00;0.00;;;;;;;;;;6242326;23;20000;-86
2023/12/21 00:16:35;;;;;;;0.00;0.00;;;;;;;;;;6217271;23;20019;-87
2023/12/21 00:19:01;;;;;;;0.00;0.00;;;;;;;;;;6192510;23;20097;-87
2023/12/21 00:21:26;;;;;;;0.00;0.00;;;;;;;;;;6243731;22;20008;-86
2023/12/21 00:23:52;;;;;;;0.00;0.00;;;;;;;;;;6191962;23;20470;-86
2023/12/21 00:26:17;;;;;;;0.00;0.00;;;;;;;;;;6241791;23;20085;-86
2023/12/21 00:28:43;;;;;;;0.00;0.00;;;;;;;;;;6191524;23;20015;-85
2023/12/21 00:31:09;;;;;;;0.00;0.00;;;;;;;;;;6216741;23;20324;-85
2023/12/21 00:33:34;;;;;;;0.00;0.00;;;;;;;;;;6241991;23;20012;-86
2023/12/21 00:36:00;;;;;;;0.00;0.00;;;;;;;;;;6262853;22;20499;-85
2023/12/21 00:38:26;;;;;;;0.00;0.00;;;;;;;;;;6243239;22;20030;-85
2023/12/21 00:40:52;;;;;;;0.00;0.00;;;;;;;;;;6242784;22;20008;-85
2023/12/21 00:43:18;;;;;;;0.00;0.00;;;;;;;;;;6216708;23;20043;-86
2023/12/21 00:45:44;;;;;;;0.00;0.00;;;;;;;;;;6216815;23;20015;-87
2023/12/21 00:48:10;;;;;;;0.00;0.00;;;;;;;;;;6242140;23;20011;-86
2023/12/21 00:50:35;;;;;;;0.00;0.00;;;;;;;;;;6243230;23;20012;-86
2023/12/21 00:53:01;;;;;;;0.00;0.00;;;;;;;;;;6216700;23;20030;-86
2023/12/21 00:55:26;;;;;;;0.00;0.00;;;;;;;;;;6216467;23;20011;-86
2023/12/21 00:57:52;;;;;;;0.00;0.00;;;;;;;;;;6216523;23;20023;-87
2023/12/21 01:00:18;;;;;;;0.00;0.00;;;;;;;;;;6243957;22;20419;-86
2023/12/21 01:02:45;;;;;;;0.00;0.00;;;;;;;;;;6216602;23;20011;-87
2023/12/21 01:05:10;;;;;;;0.00;0.00;;;;;;;;;;6241314;23;20090;-87
2023/12/21 01:07:36;;;;;;;0.00;0.00;;;;;;;;;;6244295;22;20019;-86
2023/12/21 01:10:01;;;;;;;0.00;0.00;;;;;;;;;;6241720;23;20012;-86
2023/12/21 01:12:31;;;;;;;0.00;0.00;;;;;;;;;;6217487;23;20000;-84
2023/12/21 01:14:59;;;;;;;0.00;0.00;;;;;;;;;;6242105;23;20000;-86
2023/12/21 01:17:24;;;;;;;0.00;0.00;;;;;;;;;;6217494;23;20004;-87
2023/12/21 01:19:50;;;;;;;0.00;0.00;;;;;;;;;;6192447;23;20004;-86
2023/12/21 01:22:15;;;;;;;0.00;0.00;;;;;;;;;;6243193;23;20004;-86
2023/12/21 01:24:41;;;;;;;0.00;0.00;;;;;;;;;;6217564;23;20015;-85
2023/12/21 01:27:06;;;;;;;0.00;0.00;;;;;;;;;;6207633;23;20004;-86
2023/12/21 01:29:32;;;;;;;0.00;0.00;;;;;;;;;;6247292;23;20015;-86
2023/12/21 01:31:58;;;;;;;0.00;0.00;;;;;;;;;;6198248;23;20007;-85
2023/12/21 01:34:23;;;;;;;0.00;0.00;;;;;;;;;;6216607;23;20110;-86
2023/12/21 01:36:49;;;;;;;0.00;0.00;;;;;;;;;;6187726;23;20012;-84
2023/12/21 01:39:14;;;;;;;0.00;0.00;;;;;;;;;;6189940;23;20012;-84
2023/12/21 01:41:40;;;;;;;0.00;0.00;;;;;;;;;;6191400;23;20004;-86
2023/12/21 01:44:05;;;;;;;0.00;0.00;;;;;;;;;;6191305;23;20396;-86
2023/12/21 01:46:31;;;;;;;0.00;0.00;;;;;;;;;;6216036;23;20000;-87
2023/12/21 01:48:57;;;;;;;0.00;0.00;;;;;;;;;;6166075;23;20012;-86
2023/12/21 01:51:22;;;;;;;0.00;0.00;;;;;;;;;;6166205;23;20375;-87
2023/12/21 01:53:48;;;;;;;0.00;0.00;;;;;;;;;;6166089;23;20090;-86
2023/12/21 01:56:14;;;;;;;0.00;0.00;;;;;;;;;;6189818;23;20027;-86
2023/12/21 01:58:39;;;;;;;0.00;0.00;;;;;;;;;;6242447;23;20012;-87
2023/12/21 02:01:05;;;;;;;0.00;0.00;;;;;;;;;;6166377;23;20304;-83
2023/12/21 02:03:31;;;;;;;0.00;0.00;;;;;;;;;;6190802;23;20008;-85
2023/12/21 02:05:56;;;;;;;0.00;0.00;;;;;;;;;;6242500;23;20397;-86
2023/12/21 02:08:22;;;;;;;0.00;0.00;;;;;;;;;;6215523;23;20032;-86
2023/12/21 02:10:47;;;;;;;0.00;0.00;;;;;;;;;;6190812;23;20039;-85
2023/12/21 02:13:15;;;;;;;0.00;0.00;;;;;;;;;;6165638;23;21036;-85
2023/12/21 02:15:41;;;;;;;0.00;0.00;;;;;;;;;;6190484;23;20390;-86
2023/12/21 02:18:06;;;;;;;0.00;0.00;;;;;;;;;;6242547;23;20005;-85
2023/12/21 02:20:32;;;;;;;0.00;0.00;;;;;;;;;;6190671;23;20446;-86
2023/12/21 02:22:59;;;;;;;0.00;0.00;;;;;;;;;;6215306;23;20285;-86
2023/12/21 02:25:25;;;;;;;0.00;0.00;;;;;;;;;;6201210;23;20014;-84
2023/12/21 02:27:50;;;;;;;0.00;0.00;;;;;;;;;;6240781;23;20086;-86
2023/12/21 02:30:17;;;;;;;0.00;0.00;;;;;;;;;;6190893;23;20000;-87
2023/12/21 02:32:42;;;;;;;0.00;0.00;;;;;;;;;;6241360;23;20335;-86
2023/12/21 02:35:08;;;;;;;0.00;0.00;;;;;;;;;;6215771;23;20004;-86
2023/12/21 02:37:33;;;;;;;0.00;0.00;;;;;;;;;;6215345;23;20028;-87
2023/12/21 02:39:59;;;;;;;0.00;0.00;;;;;;;;;;6215583;23;20087;-87
2023/12/21 02:42:24;;;;;;;0.00;0.00;;;;;;;;;;6241376;23;20011;-86
2023/12/21 02:44:50;;;;;;;0.00;0.00;;;;;;;;;;6241193;22;20000;-87
2023/12/21 02:47:15;;;;;;;0.00;0.00;;;;;;;;;;6241142;23;20400;-85
2023/12/21 02:49:41;;;;;;;0.00;0.00;;;;;;;;;;6215559;23;20001;-85
2023/12/21 02:52:06;;;;;;;0.00;0.00;;;;;;;;;;6242838;22;20008;-85
2023/12/21 02:54:32;;;;;;;0.00;0.00;;;;;;;;;;6212652;23;20067;-86
2023/12/21 02:56:57;;;;;;;0.00;0.00;;;;;;;;;;6215347;23;20023;-86
2023/12/21 02:59:23;;;;;;;0.00;0.00;;;;;;;;;;6240700;23;20100;-84
2023/12/21 03:01:48;;;;;;;0.00;0.00;;;;;;;;;;6190547;23;20435;-86
2023/12/21 03:04:14;;;;;;;0.00;0.00;;;;;;;;;;6215841;23;20083;-87
2023/12/21 03:06:39;;;;;;;0.00;0.00;;;;;;;;;;6242891;22;20083;-85
2023/12/21 03:09:05;;;;;;;0.00;0.00;;;;;;;;;;6242455;23;20454;-87
2023/12/21 03:11:30;;;;;;;0.00;0.00;;;;;;;;;;6217333;23;20008;-85
2023/12/21 03:13:56;;;;;;;0.00;0.00;;;;;;;;;;6242083;23;20000;-84
2023/12/21 03:16:21;;;;;;;0.00;0.00;;;;;;;;;;6244489;22;20114;-86
2023/12/21 03:18:47;;;;;;;0.00;0.00;;;;;;;;;;6191884;23;20404;-86
2023/12/21 03:21:15;;;;;;;0.00;0.00;;;;;;;;;;6242206;23;20023;-85
2023/12/21 03:23:41;;;;;;;0.00;0.00;;;;;;;;;;6242534;23;20000;-86
2023/12/21 03:26:07;;;;;;;0.00;0.00;;;;;;;;;;6242578;23;20018;-87
2023/12/21 03:28:33;;;;;;;0.00;0.00;;;;;;;;;;6217722;23;20450;-86
2023/12/21 03:31:02;;;;;;;0.00;0.00;;;;;;;;;;6243362;22;20004;-88
2023/12/21 03:33:27;;;;;;;0.00;0.00;;;;;;;;;;6192808;23;20015;-85
2023/12/21 03:35:56;;;;;;;0.00;0.00;;;;;;;;;;6242899;23;20386;-86
2023/12/21 03:38:21;;;;;;;0.00;0.00;;;;;;;;;;6218005;23;20000;-86
2023/12/21 03:40:47;;;;;;;0.00;0.00;;;;;;;;;;6244049;22;20011;-86
2023/12/21 03:43:12;;;;;;;0.00;0.00;;;;;;;;;;6242854;23;20004;-86
2023/12/21 03:45:40;;;;;;;0.00;0.00;;;;;;;;;;6217583;23;20004;-86
2023/12/21 03:48:09;;;;;;;0.00;0.00;;;;;;;;;;6242963;23;20391;-85
2023/12/21 03:50:35;;;;;;;0.00;0.00;;;;;;;;;;6242654;23;20008;-87
2023/12/21 03:53:00;;;;;;;0.00;0.00;;;;;;;;;;6217573;23;20088;-86
2023/12/21 03:55:26;;;;;;;0.00;0.00;;;;;;;;;;6244582;22;20003;-87
2023/12/21 03:57:52;;;;;;;0.00;0.00;;;;;;;;;;6242925;23;20004;-86
2023/12/21 04:00:20;;;;;;;0.00;0.00;;;;;;;;;;6217426;23;20012;-85
2023/12/21 04:02:46;;;;;;;0.00;0.00;;;;;;;;;;6243344;23;20012;-86
2023/12/21 04:05:11;;;;;;;0.00;0.00;;;;;;;;;;6192704;23;20083;-87
2023/12/21 04:07:37;;;;;;;0.00;0.00;;;;;;;;;;6242411;23;20321;-87
2023/12/21 04:10:02;;;;;;;0.00;0.00;;;;;;;;;;6244452;22;20435;-86
2023/12/21 04:12:28;;;;;;;0.00;0.00;;;;;;;;;;6244863;23;20098;-86
2023/12/21 04:14:53;;;;;;;0.00;0.00;;;;;;;;;;6224188;23;20075;-86
2023/12/21 04:17:19;;;;;;;0.00;0.00;;;;;;;;;;6191126;23;20004;-86
2023/12/21 04:19:45;;;;;;;0.00;0.00;;;;;;;;;;6242376;23;20069;-86
2023/12/21 04:22:13;;;;;;;0.00;0.00;;;;;;;;;;6217206;23;20004;-87
2023/12/21 04:24:40;;;;;;;0.00;0.00;;;;;;;;;;6239596;23;20015;-86
2023/12/21 04:27:07;;;;;;;0.00;0.00;;;;;;;;;;6192050;23;20065;-88
2023/12/21 04:29:33;;;;;;;0.00;0.00;;;;;;;;;;6241916;23;20057;-87
2023/12/21 04:31:58;;;;;;;0.00;0.00;;;;;;;;;;6242146;23;20182;-87
2023/12/21 04:34:24;;;;;;;0.00;0.00;;;;;;;;;;6245549;22;20004;-87
2023/12/21 04:36:49;;;;;;;0.00;0.00;;;;;;;;;;6221712;22;20018;-86
2023/12/21 04:39:15;;;;;;;0.00;0.00;;;;;;;;;;6196977;22;20004;-86
2023/12/21 04:41:40;;;;;;;0.00;0.00;;;;;;;;;;6196703;22;20019;-88
2023/12/21 04:44:06;;;;;;;0.00;0.00;;;;;;;;;;6221822;22;20032;-87
2023/12/21 04:46:32;;;;;;;0.00;0.00;;;;;;;;;;6197219;22;20011;-85
2023/12/21 04:48:57;;;;;;;0.00;0.00;;;;;;;;;;6246626;22;20331;-87
2023/12/21 04:51:23;;;;;;;0.00;0.00;;;;;;;;;;6247047;22;20405;-86
2023/12/21 04:53:48;;;;;;;0.00;0.00;;;;;;;;;;6221507;22;20007;-86
2023/12/21 04:56:14;;;;;;;0.00;0.00;;;;;;;;;;6247135;22;20003;-88
2023/12/21 04:58:40;;;;;;;0.00;0.00;;;;;;;;;;6247061;22;19996;-86
2023/12/21 05:01:06;;;;;;;0.00;0.00;;;;;;;;;;6222392;22;20014;-88
2023/12/21 05:03:32;;;;;;;0.00;0.00;;;;;;;;;;6221530;22;20074;-88
2023/12/21 05:05:57;;;;;;;0.00;0.00;;;;;;;;;;6247091;22;20008;-87
2023/12/21 05:08:23;;;;;;;0.00;0.00;;;;;;;;;;6247930;22;20299;-86
2023/12/21 05:10:48;;;;;;;0.00;0.00;;;;;;;;;;6246816;22;20446;-86
2023/12/21 05:13:15;;;;;;;0.00;0.00;;;;;;;;;;6247229;22;20004;-88
2023/12/21 05:15:41;;;;;;;0.00;0.00;;;;;;;;;;6244561;22;20413;-85
2023/12/21 05:18:06;;;;;;;0.00;0.00;;;;;;;;;;6244774;22;20004;-86
2023/12/21 05:20:32;;;;;;;0.00;0.00;;;;;;;;;;6273435;22;20076;-85
2023/12/21 05:22:58;;;;;;;0.00;0.00;;;;;;;;;;6246008;22;20431;-84
2023/12/21 05:25:24;;;;;;;0.00;0.00;;;;;;;;;;6245998;22;20007;-87
2023/12/21 05:27:49;;;;;;;0.00;0.00;;;;;;;;;;6246636;22;20007;-86
2023/12/21 05:30:18;;;;;;;0.00;0.00;;;;;;;;;;6221167;22;20423;-88
2023/12/21 05:32:44;;;;;;;0.00;0.00;;;;;;;;;;6220914;22;20086;-85
2023/12/21 05:35:10;;;;;;;0.00;0.00;;;;;;;;;;6273818;22;20019;-86
2023/12/21 05:37:35;;;;;;;0.00;0.00;;;;;;;;;;6273233;22;20396;-88
2023/12/21 05:40:01;;;;;;;0.00;0.00;;;;;;;;;;6221609;22;20447;-87
2023/12/21 05:42:26;;;;;;;0.00;0.00;;;;;;;;;;6221377;22;19999;-88
2023/12/21 05:44:52;;;;;;;0.00;0.00;;;;;;;;;;6273819;22;20004;-87
2023/12/21 05:47:18;;;;;;;0.00;0.00;;;;;;;;;;6223428;22;20008;-86
2023/12/21 05:49:43;;;;;;;0.00;0.00;;;;;;;;;;6278883;22;20011;-87
2023/12/21 05:52:16;;;;;;;0.00;0.00;;;;;;;;;;6232735;22;20003;-89
2023/12/21 05:54:45;;;;;;;0.00;0.00;;;;;;;;;;6256791;22;20069;-90
2023/12/21 05:57:10;;;;;;;0.00;0.00;;;;;;;;;;6223633;22;20012;-88
2023/12/21 06:00:31;;;;;;;0.00;0.00;;;;;;;;;;6218549;22;20006;-88
2023/12/21 06:03:06;;;;;;;;;;;;;;;;;;6218304;22;20047;-89
2023/12/21 06:11:44;;;;;;;0.00;0.00;;;;;;;;;;6277826;22;20019;-82
2023/12/21 06:14:10;;;;;;;0.00;0.00;;;;;;;;;;6247050;22;20011;-88
2023/12/21 06:16:35;;;;;;;0.00;0.00;;;;;;;;;;6249442;22;20432;-90
2023/12/21 06:19:09;;;;;;;0.00;0.00;;;;;;;;;;6192728;22;20019;-80
2023/12/21 06:25:40;;;;;;;0.00;0.00;;;;;;;;;;6274070;22;20027;-86
2023/12/21 06:44:01;;;;;;;0.00;0.00;;;;;;;;;;6280310;22;20217;-87
2023/12/21 06:46:27;;;;;;;0.00;0.00;;;;;;;;;;6240733;22;20007;-92
2023/12/21 06:48:54;;;;;;;0.00;0.00;;;;;;;;;;6243197;22;20039;-90
2023/12/21 06:51:20;;;;;;;0.00;0.00;;;;;;;;;;6267524;22;20003;-89
2023/12/21 07:00:13;;;;;;;0.00;0.00;;;;;;;;;;6251744;22;20011;-89
2023/12/21 07:02:50;;;;;;;0.00;0.00;;;;;;;;;;6145834;23;20090;-88
2023/12/21 07:05:18;;;;;;;0.00;0.00;;;;;;;;;;6232556;22;19996;-91
2023/12/21 07:07:46;;;;;;;0.00;0.00;;;;;;;;;;6204622;22;20038;-92
2023/12/21 07:10:19;;;;;;;0.00;0.00;;;;;;;;;;6236524;22;20037;-92
2023/12/21 07:12:44;;;;;;;0.00;0.00;;;;;;;;;;6233408;22;20007;-84
2023/12/21 07:21:17;;;;;;;0.00;0.00;;;;;;;;;;6278577;22;20035;-83
2023/12/21 07:24:30;;;;;;;0.00;0.00;;;;;;;;;;6200611;22;20023;-86
2023/12/21 07:30:17;;;;;;;0.00;0.00;;;;;;;;;;6281212;22;20026;-85
2023/12/21 07:32:46;;;;;;;0.00;0.00;;;;;;;;;;6276299;22;20016;-82
2023/12/21 07:38:17;;;;;;;0.00;0.00;;;;;;;;;;6253640;22;20027;-87
2023/12/21 07:40:51;;;;;;;0.00;0.00;;;;;;;;;;6277113;22;20355;-90
2023/12/21 07:47:08;;;;;;;0.00;0.00;;;;;;;;;;6280784;22;20028;-94
2023/12/21 08:01:40;;;;;;;0.00;0.00;;;;;;;;;;6257986;22;20028;-90
2023/12/21 08:04:16;;;;;;;0.00;0.00;;;;;;;;;;6255303;22;20480;-91
2023/12/21 08:07:11;;;;;;;0.00;0.00;;;;;;;;;;6254896;22;20004;-86
2023/12/21 08:09:45;;;;;;;0.00;0.00;;;;;;;;;;6218983;22;20090;-88
2023/12/21 08:38:44;;;;;;;0.00;0.00;;;;;;;;;;6253705;22;20023;-88
2023/12/21 08:41:47;;;;;;;0.00;0.00;;;;;;;;;;6245251;22;20067;-90
2023/12/21 08:47:40;;;;;;;0.00;0.00;;;;;;;;;;6275032;22;20074;-89
2023/12/21 08:56:03;;;;;;;0.00;0.00;;;;;;;;;;6268985;22;20065;-87
2023/12/21 09:06:48;;;;;;;0.00;0.00;;;;;;;;;;6184365;22;1834026;-79
2023/12/21 09:09:15;;;;;;;0.00;0.00;;;;;;;;;;6269564;22;20083;-82
2023/12/21 09:11:41;;;;;;;0.00;0.00;;;;;;;;;;6244875;22;20401;-78
2023/12/21 09:14:07;;;;;;;0.00;0.00;;;;;;;;;;6270709;22;20071;-81
2023/12/21 09:16:35;;;;;;;0.00;0.00;;;;;;;;;;6251396;22;20008;-80
2023/12/21 09:19:01;;;;;;;0.00;0.00;;;;;;;;;;6242102;22;20014;-80
2023/12/21 09:21:27;;;;;;;0.00;0.00;;;;;;;;;;6276173;22;20035;-77
2023/12/21 09:23:57;;;;;;;0.00;0.00;;;;;;;;;;6275575;22;20335;-79
2023/12/21 09:27:04;;;;;;;;;;;;;;;;;;6274230;22;20343;-80
2023/12/21 09:29:30;;;;;;;0.00;0.00;;;;;;;;;;6164128;22;19907;-80
2023/12/21 09:31:59;;;;;;;0.00;0.00;;;;;;;;;;6278147;22;20018;-80
2023/12/21 09:34:24;;;;;;;0.00;0.00;;;;;;;;;;6245339;22;20007;-80
2023/12/21 09:37:38;;;;;;;;;;;;;;;;;;;;;
2023/12/21 09:46:38;;;;;;;0.00;0.00;;;;;;;;;;6273563;22;20038;-80
2023/12/21 09:49:07;;;;;;;0.00;0.00;;;;;;;;;;6249438;22;20011;-82
2023/12/21 09:51:34;;;;;;;0.00;0.00;;;;;;;;;;6220042;22;20003;-83
2023/12/21 09:54:00;;;;;;;0.00;0.00;;;;;;;;;;6246531;22;20003;-80
2023/12/21 09:56:26;;;;;;;0.00;0.00;;;;;;;;;;6221423;22;20675;-79
2023/12/21 09:58:53;;;;;;;0.00;0.00;;;;;;;;;;6273410;22;20004;-79
2023/12/21 10:08:05;;;;;;;0.00;0.00;;;;;;;;;;6251599;22;20027;-80
2023/12/21 10:10:31;;;;;;;0.00;0.00;;;;;;;;;;6215415;23;20004;-78
2023/12/21 10:12:56;;;;;;;0.00;0.00;;;;;;;;;;6267081;22;20004;-79
2023/12/21 10:15:22;;;;;;;0.00;0.00;;;;;;;;;;6272301;22;20008;-78
2023/12/21 10:17:53;;;;;;;0.00;0.00;;;;;;;;;;6275724;22;20034;-86
2023/12/21 10:20:19;;;;;;;0.00;0.00;;;;;;;;;;6251123;22;20408;-84
2023/12/21 10:33:20;;;;;;;0.00;0.00;;;;;;;;;;6227106;22;20028;-78
2023/12/21 10:36:07;;;;;;;0.00;0.00;;;;;;;;;;6250357;22;20095;-83
2023/12/21 10:38:45;;;;;;;0.00;0.00;;;;;;;;;;6229448;22;20033;-78
2023/12/21 10:41:10;;;;;;;0.00;0.00;;;;;;;;;;6276370;22;20004;-81
2023/12/21 10:43:36;;;;;;;0.00;0.00;;;;;;;;;;6277324;22;20031;-81
2023/12/21 10:46:05;;;;;;;0.00;0.00;;;;;;;;;;6256453;22;20000;-80
2023/12/21 10:53:41;;;;;;;0.00;0.00;;;;;;;;;;6236685;22;20019;-86
2023/12/21 10:56:07;;;;;;;0.00;0.00;;;;;;;;;;6255408;22;20063;-86
2023/12/21 10:58:34;;;;;;;0.00;0.00;;;;;;;;;;6228812;22;20053;-86
2023/12/21 11:01:05;;;;;;;0.00;0.00;;;;;;;;;;6266558;22;20011;-84
2023/12/21 11:03:50;;;;;;;;;;;;;;;;;;;;;
2023/12/21 11:06:16;;;;;;;0.00;0.00;;;;;;;;;;6251359;22;20034;-88
2023/12/21 11:09:09;;;;;;;0.00;0.00;;;;;;;;;;6256260;22;20003;-91
2023/12/21 11:11:35;;;;;;;0.00;0.00;;;;;;;;;;6227826;22;20008;-83
2023/12/21 11:14:00;;;;;;;0.00;0.00;;;;;;;;;;6225456;22;19996;-86
2023/12/21 11:16:34;;;;;;;0.00;0.00;;;;;;;;;;6224325;22;20099;-85
2023/12/21 11:19:02;;;;;;;0.00;0.00;;;;;;;;;;6221741;22;20065;-84
2023/12/21 11:21:28;;;;;;;0.00;0.00;;;;;;;;;;6197968;22;20003;-86
2023/12/21 11:23:54;;;;;;;0.00;0.00;;;;;;;;;;6275966;22;20019;-86
2023/12/21 11:26:27;;;;;;;0.00;0.00;;;;;;;;;;6274743;22;20011;-86
2023/12/21 11:29:03;;;;;;;0.00;0.00;;;;;;;;;;6210765;23;20011;-86
2023/12/21 11:31:40;;;;;;;0.00;0.00;;;;;;;;;;6273863;22;20011;-87
2023/12/21 11:34:18;;;;;;;0.00;0.00;;;;;;;;;;6244448;22;20091;-81
2023/12/21 11:36:44;;;;;;;0.00;0.00;;;;;;;;;;6269949;22;20015;-84
2023/12/21 11:39:22;;;;;;;0.00;0.00;;;;;;;;;;6271201;22;20012;-83
2023/12/21 11:41:58;;;;;;;0.00;0.00;;;;;;;;;;6220268;22;20014;-84
2023/12/21 11:44:24;;;;;;;0.00;0.00;;;;;;;;;;6241050;22;20011;-82
2023/12/21 11:46:53;;;;;;;0.00;0.00;;;;;;;;;;6240862;22;20004;-84
2023/12/21 11:49:45;;;;;;;0.00;0.00;;;;;;;;;;6214710;22;20004;-84
2023/12/21 11:52:24;;;;;;;0.00;0.00;;;;;;;;;;6222369;22;20012;-88
2023/12/21 11:54:49;;;;;;;0.00;0.00;;;;;;;;;;6217626;22;20007;-87
2023/12/21 11:57:16;;;;;;;0.00;0.00;;;;;;;;;;6242866;22;19996;-87
2023/12/21 11:59:42;;;;;;;0.00;0.00;;;;;;;;;;6271144;22;20121;-87
2023/12/21 12:02:10;;;;;;;0.00;0.00;;;;;;;;;;6218522;22;20096;-86
2023/12/21 12:04:36;;;;;;;0.00;0.00;;;;;;;;;;6195643;22;20101;-86
2023/12/21 12:07:02;;;;;;;0.00;0.00;;;;;;;;;;6220918;22;20632;-87
2023/12/21 12:09:28;;;;;;;0.00;0.00;;;;;;;;;;6222297;22;20022;-87
2023/12/21 12:11:53;;;;;;;0.00;0.00;;;;;;;;;;6274930;22;20001;-87
2023/12/21 12:14:19;;;;;;;0.00;0.00;;;;;;;;;;6222614;22;20053;-85
2023/12/21 12:16:44;;;;;;;0.00;0.00;;;;;;;;;;6247615;22;20000;-86
2023/12/21 12:19:13;;;;;;;0.00;0.00;;;;;;;;;;6246090;22;20008;-87
2023/12/21 12:21:38;;;;;;;0.00;0.00;;;;;;;;;;6223352;22;20082;-86
2023/12/21 12:24:06;;;;;;;0.00;0.00;;;;;;;;;;6220203;22;20000;-85
2023/12/21 12:26:31;;;;;;;0.00;0.00;;;;;;;;;;6221576;22;20003;-86
2023/12/21 12:28:57;;;;;;;0.00;0.00;;;;;;;;;;6248095;22;20340;-87
2023/12/21 12:31:22;;;;;;;0.00;0.00;;;;;;;;;;6274758;22;20382;-85
2023/12/21 12:33:48;;;;;;;0.00;0.00;;;;;;;;;;6248301;22;20006;-86
2023/12/21 12:36:18;;;;;;;0.00;0.00;;;;;;;;;;6223277;22;20003;-86
2023/12/21 12:38:45;;;;;;;0.00;0.00;;;;;;;;;;6250824;22;20011;-84
2023/12/21 12:41:17;;;;;;;0.00;0.00;;;;;;;;;;6269136;22;20011;-88
2023/12/21 12:43:44;;;;;;;0.00;0.00;;;;;;;;;;6266749;22;19995;-85
2023/12/21 12:46:09;;;;;;;0.00;0.00;;;;;;;;;;6263912;22;20008;-85
2023/12/21 12:48:35;;;;;;;0.00;0.00;;;;;;;;;;6247688;22;20073;-85
2023/12/21 12:51:00;;;;;;;0.00;0.00;;;;;;;;;;6247732;22;20012;-87
2023/12/21 12:53:26;;;;;;;0.00;0.00;;;;;;;;;;6247865;22;20042;-85
2023/12/21 12:55:55;;;;;;;0.00;0.00;;;;;;;;;;6197674;22;20008;-86
2023/12/21 12:58:24;;;;;;;0.00;0.00;;;;;;;;;;6198931;22;20065;-85
2023/12/21 13:00:50;;;;;;;0.00;0.00;;;;;;;;;;6246677;22;20015;-85
2023/12/21 13:03:16;;;;;;;0.00;0.00;;;;;;;;;;6221140;22;20000;-85
2023/12/21 13:05:41;;;;;;;0.00;0.00;;;;;;;;;;6246224;22;20000;-85
2023/12/21 13:08:07;;;;;;;0.00;0.00;;;;;;;;;;6246822;22;20086;-85
2023/12/21 13:10:32;;;;;;;0.00;0.00;;;;;;;;;;6273380;22;20078;-84
2023/12/21 13:12:58;;;;;;;0.00;0.00;;;;;;;;;;6273813;22;20342;-87
2023/12/21 13:15:23;;;;;;;0.00;0.00;;;;;;;;;;6247296;22;20324;-85
2023/12/21 13:17:51;;;;;;;0.00;0.00;;;;;;;;;;6248283;22;20414;-86
2023/12/21 13:20:17;;;;;;;0.00;0.00;;;;;;;;;;6223185;22;20034;-86
2023/12/21 13:22:42;;;;;;;0.00;0.00;;;;;;;;;;6247569;22;20007;-88
2023/12/21 13:25:08;;;;;;;0.00;0.00;;;;;;;;;;6274687;22;20062;-85
2023/12/21 13:27:33;;;;;;;0.00;0.00;;;;;;;;;;6222554;22;20003;-86
2023/12/21 13:30:01;;;;;;;0.00;0.00;;;;;;;;;;6247235;22;20011;-88
2023/12/21 13:32:26;;;;;;;0.00;0.00;;;;;;;;;;6197035;22;20011;-86
2023/12/21 13:34:52;;;;;;;0.00;0.00;;;;;;;;;;6197786;22;20022;-86
2023/12/21 13:37:17;;;;;;;0.00;0.00;;;;;;;;;;6221854;22;20008;-86
2023/12/21 13:39:48;;;;;;;0.00;0.00;;;;;;;;;;6247379;22;20008;-87
2023/12/21 13:42:17;;;;;;;0.00;0.00;;;;;;;;;;6274233;22;20014;-87
2023/12/21 13:44:42;;;;;;;0.00;0.00;;;;;;;;;;6223197;22;20439;-86
2023/12/21 13:47:08;;;;;;;0.00;0.00;;;;;;;;;;6222322;22;20008;-87
2023/12/21 13:49:34;;;;;;;0.00;0.00;;;;;;;;;;6222081;22;19996;-86
2023/12/21 13:52:00;;;;;;;0.00;0.00;;;;;;;;;;6222214;22;20347;-87
2023/12/21 13:54:25;;;;;;;0.00;0.00;;;;;;;;;;6218663;22;20008;-86
2023/12/21 13:56:52;;;;;;;0.00;0.00;;;;;;;;;;6246604;22;19996;-87
2023/12/21 13:59:17;;;;;;;0.00;0.00;;;;;;;;;;6195873;22;20007;-86
2023/12/21 14:01:43;;;;;;;0.00;0.00;;;;;;;;;;6246770;22;20435;-86
2023/12/21 14:04:09;;;;;;;0.00;0.00;;;;;;;;;;6247358;22;20135;-87
2023/12/21 14:06:34;;;;;;;0.00;0.00;;;;;;;;;;6248827;22;20023;-88
2023/12/21 14:09:00;;;;;;;0.00;0.00;;;;;;;;;;6248180;22;20351;-86
2023/12/21 14:11:25;;;;;;;0.00;0.00;;;;;;;;;;6247615;22;20376;-86
2023/12/21 14:13:51;;;;;;;0.00;0.00;;;;;;;;;;6246504;22;20006;-86
2023/12/21 14:16:16;;;;;;;0.00;0.00;;;;;;;;;;6197202;22;20014;-85
2023/12/21 14:18:42;;;;;;;0.00;0.00;;;;;;;;;;6222104;22;20008;-87
2023/12/21 14:21:08;;;;;;;0.00;0.00;;;;;;;;;;6211582;22;20015;-86
2023/12/21 14:23:33;;;;;;;0.00;0.00;;;;;;;;;;6246999;22;20030;-88
2023/12/21 14:25:59;;;;;;;0.00;0.00;;;;;;;;;;6247428;22;20003;-87
2023/12/21 14:28:25;;;;;;;0.00;0.00;;;;;;;;;;6246797;22;20035;-86
2023/12/21 14:30:51;;;;;;;0.00;0.00;;;;;;;;;;6221637;22;20007;-86
2023/12/21 14:33:16;;;;;;;0.00;0.00;;;;;;;;;;6246979;22;20004;-87
2023/12/21 14:35:42;;;;;;;0.00;0.00;;;;;;;;;;6222048;22;20423;-87
2023/12/21 14:38:07;;;;;;;0.00;0.00;;;;;;;;;;6194748;22;20004;-88
2023/12/21 14:40:35;;;;;;;0.00;0.00;;;;;;;;;;6246651;22;20012;-86
2023/12/21 14:43:01;;;;;;;0.00;0.00;;;;;;;;;;6246721;22;20569;-87
2023/12/21 14:45:27;;;;;;;0.00;0.00;;;;;;;;;;6219913;22;20007;-85
2023/12/21 14:47:52;;;;;;;0.00;0.00;;;;;;;;;;6222263;22;20419;-86
2023/12/21 14:50:19;;;;;;;0.00;0.00;;;;;;;;;;6273927;22;20023;-87
2023/12/21 14:52:45;;;;;;;0.00;0.00;;;;;;;;;;6222136;22;20012;-86
2023/12/21 14:55:10;;;;;;;0.00;0.00;;;;;;;;;;6220413;22;20010;-87
2023/12/21 14:57:36;;;;;;;0.00;0.00;;;;;;;;;;6221123;22;20023;-87
2023/12/21 15:00:03;;;;;;;0.00;0.00;;;;;;;;;;6273713;22;20058;-86
2023/12/21 15:02:29;;;;;;;0.00;0.00;;;;;;;;;;6247747;22;20016;-87
2023/12/21 15:04:54;;;;;;;0.00;0.00;;;;;;;;;;6248514;22;20160;-87
2023/12/21 15:07:19;;;;;;;0.10;0.00;;;;;;;;;;6248972;22;20383;-86
2023/12/21 15:09:45;;;;;;;0.00;0.00;;;;;;;;;;6248395;22;20027;-86
2023/12/21 15:12:10;;;;;;;0.00;0.00;;;;;;;;;;6248529;22;20038;-88
2023/12/21 15:14:36;;;;;;;0.00;0.00;;;;;;;;;;6198604;22;20035;-87
2023/12/21 15:17:02;;;;;;;0.00;0.00;;;;;;;;;;6248519;22;20007;-86
2023/12/21 15:19:31;;;;;;;0.00;0.00;;;;;;;;;;6223546;22;20420;-86
2023/12/21 15:21:58;;;;;;;0.00;0.00;;;;;;;;;;6226755;22;20018;-87
2023/12/21 15:24:23;;;;;;;0.00;0.00;;;;;;;;;;6226378;22;20000;-86
2023/12/21 15:26:49;;;;;;;0.00;0.00;;;;;;;;;;6251215;22;20007;-86
2023/12/21 15:29:14;;;;;;;0.00;0.00;;;;;;;;;;6250459;22;20003;-87
2023/12/21 15:31:41;;;;;;;0.10;0.00;;;;;;;;;;6251084;22;20007;-87
2023/12/21 15:34:07;;;;;;;0.00;0.00;;;;;;;;;;6292315;22;20000;-85
2023/12/21 15:36:33;;;;;;;0.00;0.00;;;;;;;;;;6243409;22;20003;-85
2023/12/21 15:38:59;;;;;;;0.00;0.00;;;;;;;;;;6225250;22;20117;-86
2023/12/21 15:41:26;;;;;;;0.00;0.00;;;;;;;;;;6249914;22;20090;-86
2023/12/21 15:43:51;;;;;;;0.00;0.00;;;;;;;;;;6296626;22;19991;-86
2023/12/21 15:46:17;;;;;;;0.00;0.00;;;;;;;;;;6250765;22;20022;-85
2023/12/21 15:48:42;;;;;;;0.00;0.00;;;;;;;;;;6275145;22;20008;-86
2023/12/21 15:51:08;;;;;;;0.00;0.00;;;;;;;;;;6249590;22;20008;-86
2023/12/21 15:53:33;;;;;;;0.00;0.00;;;;;;;;;;6249417;22;19999;-85
2023/12/21 15:55:59;;;;;;;0.00;0.00;;;;;;;;;;6272870;22;20027;-86
2023/12/21 15:58:25;;;;;;;0.00;0.00;;;;;;;;;;6249582;22;19991;-86
2023/12/21 16:00:51;;;;;;;0.00;0.00;;;;;;;;;;6272810;22;20000;-87
2023/12/21 16:03:17;;;;;;;0.00;0.00;;;;;;;;;;6275360;22;20004;-87
2023/12/21 16:05:42;;;;;;;0.00;0.00;;;;;;;;;;6247577;22;20441;-86
2023/12/21 16:08:09;;;;;;;0.00;0.00;;;;;;;;;;6198044;22;20339;-86
2023/12/21 16:10:37;;;;;;;0.00;0.00;;;;;;;;;;6248031;22;20054;-87
2023/12/21 16:13:03;;;;;;;0.00;0.00;;;;;;;;;;6248282;22;20110;-87
2023/12/21 16:15:29;;;;;;;0.00;0.00;;;;;;;;;;6275210;22;20017;-87
2023/12/21 16:17:55;;;;;;;0.00;0.00;;;;;;;;;;6248310;22;20000;-87
2023/12/21 16:20:21;;;;;;;0.00;0.00;;;;;;;;;;6248528;22;20019;-86
2023/12/21 16:22:46;;;;;;;0.00;0.00;;;;;;;;;;6247989;22;20429;-87
2023/12/21 16:25:12;;;;;;;0.00;0.00;;;;;;;;;;6248037;22;20000;-86
2023/12/21 16:27:37;;;;;;;0.00;0.00;;;;;;;;;;6248200;22;20007;-86
2023/12/21 16:30:03;;;;;;;0.00;0.00;;;;;;;;;;6248310;22;20007;-87
2023/12/21 16:32:30;;;;;;;0.00;0.00;;;;;;;;;;6275562;22;20066;-87
2023/12/21 16:34:55;;;;;;;0.00;0.00;;;;;;;;;;6275159;22;20003;-87
2023/12/21 16:37:21;;;;;;;0.00;0.00;;;;;;;;;;6247983;22;20003;-87
2023/12/21 16:39:46;;;;;;;0.00;0.00;;;;;;;;;;6247470;22;20003;-87
2023/12/21 16:42:12;;;;;;;0.00;0.00;;;;;;;;;;6248073;22;20408;-86
2023/12/21 16:44:38;;;;;;;0.00;0.00;;;;;;;;;;6222708;22;20069;-87
2023/12/21 16:47:04;;;;;;;0.00;0.00;;;;;;;;;;6248199;22;20006;-86
2023/12/21 16:49:30;;;;;;;0.00;0.00;;;;;;;;;;6222536;22;20011;-86
2023/12/21 16:51:57;;;;;;;0.00;0.00;;;;;;;;;;6248165;22;20078;-87
2023/12/21 16:54:23;;;;;;;0.00;0.00;;;;;;;;;;6247929;22;20003;-87
2023/12/21 16:56:48;;;;;;;0.00;0.00;;;;;;;;;;6247884;22;20006;-87
2023/12/21 16:59:14;;;;;;;0.00;0.00;;;;;;;;;;6245468;22;20010;-87
2023/12/21 17:01:39;;;;;;;0.00;0.00;;;;;;;;;;6274381;22;20003;-86